sensor_id;sensor_type;location;lat;lon;timestamp;P1;durP1;ratioP1;P2;durP2;ratioP2
33206;SDS011;19565;46.602;11.534;2022-09-03T00:00:58;17.40;;;16.40;;
33206;SDS011;19565;46.602;11.534;2022-09-03T00:03:30;17.13;;;16.23;;
33206;SDS011;19565;46.602;11.534;2022-09-03T00:06:08;17.65;;;16.65;;
33206;SDS011;19565;46.602;11.534;2022-09-03T00:08:42;18.55;;;17.55;;
33206;SDS011;19565;46.602;11.534;2022-09-03T00:11:13;17.77;;;16.77;;
33206;SDS011;19565;46.602;11.534;2022-09-03T00:13:48;17.83;;;16.90;;
33206;SDS011;19565;46.602;11.534;2022-09-03T00:16:21;18.10;;;17.00;;
33206;SDS011;19565;46.602;11.534;2022-09-03T00:18:54;18.48;;;17.48;;
33206;SDS011;19565;46.602;11.534;2022-09-03T00:21:31;17.50;;;16.60;;
33206;SDS011;19565;46.602;11.534;2022-09-03T00:24:05;17.65;;;16.75;;
33206;SDS011;19565;46.602;11.534;2022-09-03T00:26:39;17.30;;;16.50;;
33206;SDS011;19565;46.602;11.534;2022-09-03T00:29:12;17.35;;;16.45;;
33206;SDS011;19565;46.602;11.534;2022-09-03T00:31:43;17.80;;;16.90;;
33206;SDS011;19565;46.602;11.534;2022-09-03T00:34:15;17.38;;;16.48;;
33206;SDS011;19565;46.602;11.534;2022-09-03T00:36:50;17.10;;;16.30;;
33206;SDS011;19565;46.602;11.534;2022-09-03T00:39:20;17.00;;;16.17;;
33206;SDS011;19565;46.602;11.534;2022-09-03T00:47:35;17.15;;;16.30;;
33206;SDS011;19565;46.602;11.534;2022-09-03T00:50:17;17.77;;;16.88;;
33206;SDS011;19565;46.602;11.534;2022-09-03T00:52:57;17.92;;;17.02;;
33206;SDS011;19565;46.602;11.534;2022-09-03T00:55:34;17.50;;;16.70;;
33206;SDS011;19565;46.602;11.534;2022-09-03T00:58:17;18.10;;;17.20;;
33206;SDS011;19565;46.602;11.534;2022-09-03T01:00:56;17.65;;;16.75;;
33206;SDS011;19565;46.602;11.534;2022-09-03T01:03:25;17.55;;;16.65;;
33206;SDS011;19565;46.602;11.534;2022-09-03T01:06:06;18.88;;;17.88;;
33206;SDS011;19565;46.602;11.534;2022-09-03T01:11:38;17.93;;;17.03;;
33206;SDS011;19565;46.602;11.534;2022-09-03T01:14:24;18.48;;;17.50;;
33206;SDS011;19565;46.602;11.534;2022-09-03T01:17:04;17.67;;;16.77;;
33206;SDS011;19565;46.602;11.534;2022-09-03T01:19:43;17.05;;;16.15;;
33206;SDS011;19565;46.602;11.534;2022-09-03T01:22:29;17.60;;;16.70;;
33206;SDS011;19565;46.602;11.534;2022-09-03T01:25:13;16.90;;;16.00;;
33206;SDS011;19565;46.602;11.534;2022-09-03T01:30:50;17.17;;;16.27;;
33206;SDS011;19565;46.602;11.534;2022-09-03T01:33:25;17.73;;;16.83;;
33206;SDS011;19565;46.602;11.534;2022-09-03T01:35:59;17.77;;;16.88;;
33206;SDS011;19565;46.602;11.534;2022-09-03T01:38:33;17.40;;;16.60;;
33206;SDS011;19565;46.602;11.534;2022-09-03T01:41:09;17.55;;;16.65;;
33206;SDS011;19565;46.602;11.534;2022-09-03T01:44:04;17.70;;;16.70;;
33206;SDS011;19565;46.602;11.534;2022-09-03T01:46:42;17.23;;;16.33;;
33206;SDS011;19565;46.602;11.534;2022-09-03T01:49:14;17.63;;;16.52;;
33206;SDS011;19565;46.602;11.534;2022-09-03T01:51:53;16.95;;;16.15;;
33206;SDS011;19565;46.602;11.534;2022-09-03T01:54:37;16.90;;;16.00;;
33206;SDS011;19565;46.602;11.534;2022-09-03T01:57:21;17.30;;;16.40;;
33206;SDS011;19565;46.602;11.534;2022-09-03T02:00:05;17.42;;;16.52;;
33206;SDS011;19565;46.602;11.534;2022-09-03T02:02:36;17.50;;;16.60;;
33206;SDS011;19565;46.602;11.534;2022-09-03T02:05:07;17.58;;;16.67;;
33206;SDS011;19565;46.602;11.534;2022-09-03T02:07:38;17.50;;;16.60;;
33206;SDS011;19565;46.602;11.534;2022-09-03T02:10:08;16.92;;;16.10;;
33206;SDS011;19565;46.602;11.534;2022-09-03T02:12:38;17.70;;;16.70;;
33206;SDS011;19565;46.602;11.534;2022-09-03T02:15:12;17.38;;;16.48;;
33206;SDS011;19565;46.602;11.534;2022-09-03T02:17:44;17.40;;;16.50;;
33206;SDS011;19565;46.602;11.534;2022-09-03T02:20:16;17.20;;;16.40;;
33206;SDS011;19565;46.602;11.534;2022-09-03T02:22:48;16.23;;;15.35;;
33206;SDS011;19565;46.602;11.534;2022-09-03T02:25:17;17.13;;;16.23;;
33206;SDS011;19565;46.602;11.534;2022-09-03T02:27:46;17.20;;;16.30;;
33206;SDS011;19565;46.602;11.534;2022-09-03T02:30:17;17.60;;;16.70;;
33206;SDS011;19565;46.602;11.534;2022-09-03T02:32:45;17.30;;;16.33;;
33206;SDS011;19565;46.602;11.534;2022-09-03T02:35:13;17.38;;;16.48;;
33206;SDS011;19565;46.602;11.534;2022-09-03T02:37:42;17.63;;;16.73;;
33206;SDS011;19565;46.602;11.534;2022-09-03T02:40:10;17.60;;;16.42;;
33206;SDS011;19565;46.602;11.534;2022-09-03T02:42:38;16.92;;;16.13;;
33206;SDS011;19565;46.602;11.534;2022-09-03T02:45:08;17.02;;;16.20;;
33206;SDS011;19565;46.602;11.534;2022-09-03T02:47:46;17.23;;;16.33;;
33206;SDS011;19565;46.602;11.534;2022-09-03T02:50:19;16.55;;;15.65;;
33206;SDS011;19565;46.602;11.534;2022-09-03T02:52:47;16.55;;;15.70;;
33206;SDS011;19565;46.602;11.534;2022-09-03T02:55:15;17.20;;;16.20;;
33206;SDS011;19565;46.602;11.534;2022-09-03T02:57:44;16.90;;;16.05;;
33206;SDS011;19565;46.602;11.534;2022-09-03T03:00:12;16.27;;;15.48;;
33206;SDS011;19565;46.602;11.534;2022-09-03T03:02:41;17.00;;;16.10;;
33206;SDS011;19565;46.602;11.534;2022-09-03T03:05:12;16.50;;;15.70;;
33206;SDS011;19565;46.602;11.534;2022-09-03T03:07:49;16.27;;;15.47;;
33206;SDS011;19565;46.602;11.534;2022-09-03T03:10:18;16.00;;;15.18;;
33206;SDS011;19565;46.602;11.534;2022-09-03T03:12:46;16.65;;;15.75;;
33206;SDS011;19565;46.602;11.534;2022-09-03T03:15:14;16.25;;;15.45;;
33206;SDS011;19565;46.602;11.534;2022-09-03T03:17:42;15.93;;;15.02;;
33206;SDS011;19565;46.602;11.534;2022-09-03T03:20:11;15.93;;;15.10;;
33206;SDS011;19565;46.602;11.534;2022-09-03T03:22:39;16.50;;;15.20;;
33206;SDS011;19565;46.602;11.534;2022-09-03T03:25:08;15.70;;;14.80;;
33206;SDS011;19565;46.602;11.534;2022-09-03T03:27:36;16.50;;;15.60;;
33206;SDS011;19565;46.602;11.534;2022-09-03T03:30:07;16.25;;;15.35;;
33206;SDS011;19565;46.602;11.534;2022-09-03T03:32:36;16.55;;;15.57;;
33206;SDS011;19565;46.602;11.534;2022-09-03T03:35:05;16.20;;;15.30;;
33206;SDS011;19565;46.602;11.534;2022-09-03T03:37:35;15.90;;;15.07;;
33206;SDS011;19565;46.602;11.534;2022-09-03T03:40:03;15.57;;;14.77;;
33206;SDS011;19565;46.602;11.534;2022-09-03T03:42:32;15.82;;;14.93;;
33206;SDS011;19565;46.602;11.534;2022-09-03T03:45:01;16.30;;;15.50;;
33206;SDS011;19565;46.602;11.534;2022-09-03T03:47:29;16.77;;;15.77;;
33206;SDS011;19565;46.602;11.534;2022-09-03T03:49:57;16.60;;;15.70;;
33206;SDS011;19565;46.602;11.534;2022-09-03T03:52:26;16.17;;;15.35;;
33206;SDS011;19565;46.602;11.534;2022-09-03T03:54:55;16.20;;;15.32;;
33206;SDS011;19565;46.602;11.534;2022-09-03T03:57:23;16.38;;;15.38;;
33206;SDS011;19565;46.602;11.534;2022-09-03T03:59:52;15.43;;;14.63;;
33206;SDS011;19565;46.602;11.534;2022-09-03T04:02:20;15.57;;;14.77;;
33206;SDS011;19565;46.602;11.534;2022-09-03T04:04:48;16.25;;;15.35;;
33206;SDS011;19565;46.602;11.534;2022-09-03T04:07:16;16.63;;;15.73;;
33206;SDS011;19565;46.602;11.534;2022-09-03T04:09:44;15.68;;;14.88;;
33206;SDS011;19565;46.602;11.534;2022-09-03T04:12:14;15.95;;;15.15;;
33206;SDS011;19565;46.602;11.534;2022-09-03T04:14:43;16.17;;;15.37;;
33206;SDS011;19565;46.602;11.534;2022-09-03T04:17:11;15.52;;;14.73;;
33206;SDS011;19565;46.602;11.534;2022-09-03T04:19:40;15.65;;;14.75;;
33206;SDS011;19565;46.602;11.534;2022-09-03T04:22:08;15.98;;;15.02;;
33206;SDS011;19565;46.602;11.534;2022-09-03T04:24:37;15.82;;;14.93;;
33206;SDS011;19565;46.602;11.534;2022-09-03T04:27:05;15.30;;;14.50;;
33206;SDS011;19565;46.602;11.534;2022-09-03T04:29:35;14.85;;;14.05;;
33206;SDS011;19565;46.602;11.534;2022-09-03T04:32:04;15.02;;;14.20;;
33206;SDS011;19565;46.602;11.534;2022-09-03T04:34:50;15.10;;;14.20;;
33206;SDS011;19565;46.602;11.534;2022-09-03T04:37:18;16.30;;;15.23;;
33206;SDS011;19565;46.602;11.534;2022-09-03T04:39:46;16.27;;;15.38;;
33206;SDS011;19565;46.602;11.534;2022-09-03T04:42:14;16.20;;;15.30;;
33206;SDS011;19565;46.602;11.534;2022-09-03T04:44:44;16.10;;;15.30;;
33206;SDS011;19565;46.602;11.534;2022-09-03T04:47:12;17.40;;;16.05;;
33206;SDS011;19565;46.602;11.534;2022-09-03T04:49:40;16.20;;;15.40;;
33206;SDS011;19565;46.602;11.534;2022-09-03T04:52:09;16.75;;;15.65;;
33206;SDS011;19565;46.602;11.534;2022-09-03T04:54:37;16.52;;;15.65;;
33206;SDS011;19565;46.602;11.534;2022-09-03T04:57:07;15.80;;;15.00;;
33206;SDS011;19565;46.602;11.534;2022-09-03T04:59:35;16.08;;;15.18;;
33206;SDS011;19565;46.602;11.534;2022-09-03T05:02:05;15.07;;;14.18;;
33206;SDS011;19565;46.602;11.534;2022-09-03T05:04:33;14.80;;;14.00;;
33206;SDS011;19565;46.602;11.534;2022-09-03T05:07:01;15.15;;;14.25;;
33206;SDS011;19565;46.602;11.534;2022-09-03T05:09:30;15.20;;;14.40;;
33206;SDS011;19565;46.602;11.534;2022-09-03T05:11:58;15.43;;;14.63;;
33206;SDS011;19565;46.602;11.534;2022-09-03T05:14:26;16.13;;;15.13;;
33206;SDS011;19565;46.602;11.534;2022-09-03T05:16:54;15.60;;;14.80;;
33206;SDS011;19565;46.602;11.534;2022-09-03T05:19:23;15.95;;;15.07;;
33206;SDS011;19565;46.602;11.534;2022-09-03T05:21:51;15.55;;;14.75;;
33206;SDS011;19565;46.602;11.534;2022-09-03T05:24:19;14.52;;;13.73;;
33206;SDS011;19565;46.602;11.534;2022-09-03T05:26:48;15.13;;;14.23;;
33206;SDS011;19565;46.602;11.534;2022-09-03T05:29:16;15.13;;;14.32;;
33206;SDS011;19565;46.602;11.534;2022-09-03T05:31:45;15.00;;;14.20;;
33206;SDS011;19565;46.602;11.534;2022-09-03T05:34:13;15.20;;;14.30;;
33206;SDS011;19565;46.602;11.534;2022-09-03T05:36:45;14.77;;;13.98;;
33206;SDS011;19565;46.602;11.534;2022-09-03T05:39:15;14.93;;;14.10;;
33206;SDS011;19565;46.602;11.534;2022-09-03T05:41:43;14.38;;;13.57;;
33206;SDS011;19565;46.602;11.534;2022-09-03T05:44:11;13.70;;;13.00;;
33206;SDS011;19565;46.602;11.534;2022-09-03T05:46:39;16.13;;;15.32;;
33206;SDS011;19565;46.602;11.534;2022-09-03T05:49:07;16.00;;;15.20;;
33206;SDS011;19565;46.602;11.534;2022-09-03T05:51:37;16.08;;;15.18;;
33206;SDS011;19565;46.602;11.534;2022-09-03T05:54:07;16.20;;;15.27;;
33206;SDS011;19565;46.602;11.534;2022-09-03T05:56:36;14.93;;;14.13;;
33206;SDS011;19565;46.602;11.534;2022-09-03T05:59:07;15.82;;;14.93;;
33206;SDS011;19565;46.602;11.534;2022-09-03T06:01:37;16.67;;;15.75;;
33206;SDS011;19565;46.602;11.534;2022-09-03T06:04:15;16.52;;;15.70;;
33206;SDS011;19565;46.602;11.534;2022-09-03T06:06:44;16.92;;;16.02;;
33206;SDS011;19565;46.602;11.534;2022-09-03T06:09:15;16.98;;;16.08;;
33206;SDS011;19565;46.602;11.534;2022-09-03T06:11:45;16.55;;;15.65;;
33206;SDS011;19565;46.602;11.534;2022-09-03T06:14:15;16.45;;;15.55;;
33206;SDS011;19565;46.602;11.534;2022-09-03T06:16:44;13.38;;;12.68;;
33206;SDS011;19565;46.602;11.534;2022-09-03T06:19:15;16.52;;;15.63;;
33206;SDS011;19565;46.602;11.534;2022-09-03T06:21:44;16.67;;;15.88;;
33206;SDS011;19565;46.602;11.534;2022-09-03T06:24:15;16.02;;;15.20;;
33206;SDS011;19565;46.602;11.534;2022-09-03T06:26:44;16.85;;;15.90;;
33206;SDS011;19565;46.602;11.534;2022-09-03T06:29:12;16.73;;;15.88;;
33206;SDS011;19565;46.602;11.534;2022-09-03T06:31:40;17.25;;;16.25;;
33206;SDS011;19565;46.602;11.534;2022-09-03T06:34:09;12.77;;;11.88;;
33206;SDS011;19565;46.602;11.534;2022-09-03T06:36:37;15.68;;;14.80;;
33206;SDS011;19565;46.602;11.534;2022-09-03T06:39:06;15.27;;;14.38;;
33206;SDS011;19565;46.602;11.534;2022-09-03T06:41:35;15.30;;;14.50;;
33206;SDS011;19565;46.602;11.534;2022-09-03T06:44:05;15.02;;;14.23;;
33206;SDS011;19565;46.602;11.534;2022-09-03T06:46:37;15.23;;;14.40;;
33206;SDS011;19565;46.602;11.534;2022-09-03T06:49:08;14.98;;;14.18;;
33206;SDS011;19565;46.602;11.534;2022-09-03T06:51:37;15.52;;;14.73;;
33206;SDS011;19565;46.602;11.534;2022-09-03T06:54:08;12.73;;;11.98;;
33206;SDS011;19565;46.602;11.534;2022-09-03T06:56:39;15.95;;;15.05;;
33206;SDS011;19565;46.602;11.534;2022-09-03T06:59:09;15.43;;;14.57;;
33206;SDS011;19565;46.602;11.534;2022-09-03T07:01:38;40.05;;;38.30;;
33206;SDS011;19565;46.602;11.534;2022-09-03T07:04:09;41.83;;;40.03;;
33206;SDS011;19565;46.602;11.534;2022-09-03T07:06:39;41.67;;;39.88;;
33206;SDS011;19565;46.602;11.534;2022-09-03T07:09:09;40.70;;;38.90;;
33206;SDS011;19565;46.602;11.534;2022-09-03T07:11:39;41.15;;;39.35;;
33206;SDS011;19565;46.602;11.534;2022-09-03T07:14:13;41.75;;;39.85;;
33206;SDS011;19565;46.602;11.534;2022-09-03T07:16:42;41.92;;;40.13;;
33206;SDS011;19565;46.602;11.534;2022-09-03T07:19:11;42.88;;;40.97;;
33206;SDS011;19565;46.602;11.534;2022-09-03T07:21:40;45.75;;;43.75;;
33206;SDS011;19565;46.602;11.534;2022-09-03T07:24:15;43.55;;;41.65;;
33206;SDS011;19565;46.602;11.534;2022-09-03T07:26:46;46.40;;;44.30;;
33206;SDS011;19565;46.602;11.534;2022-09-03T07:29:14;50.38;;;47.97;;
33206;SDS011;19565;46.602;11.534;2022-09-03T07:31:46;54.63;;;52.27;;
33206;SDS011;19565;46.602;11.534;2022-09-03T07:34:17;55.93;;;53.50;;
33206;SDS011;19565;46.602;11.534;2022-09-03T07:36:47;57.67;;;55.17;;
33206;SDS011;19565;46.602;11.534;2022-09-03T07:39:17;60.83;;;58.22;;
33206;SDS011;19565;46.602;11.534;2022-09-03T07:41:47;58.53;;;56.03;;
33206;SDS011;19565;46.602;11.534;2022-09-03T07:44:16;59.67;;;57.08;;
33206;SDS011;19565;46.602;11.534;2022-09-03T07:46:45;61.60;;;58.90;;
33206;SDS011;19565;46.602;11.534;2022-09-03T07:49:16;62.83;;;60.13;;
33206;SDS011;19565;46.602;11.534;2022-09-03T07:51:46;65.33;;;62.53;;
33206;SDS011;19565;46.602;11.534;2022-09-03T07:54:16;62.55;;;59.85;;
33206;SDS011;19565;46.602;11.534;2022-09-03T07:56:46;62.10;;;59.40;;
33206;SDS011;19565;46.602;11.534;2022-09-03T07:59:15;60.55;;;57.95;;
33206;SDS011;19565;46.602;11.534;2022-09-03T08:01:43;61.05;;;58.40;;
33206;SDS011;19565;46.602;11.534;2022-09-03T08:04:11;62.53;;;59.92;;
33206;SDS011;19565;46.602;11.534;2022-09-03T08:06:39;66.35;;;63.45;;
33206;SDS011;19565;46.602;11.534;2022-09-03T08:09:08;66.07;;;63.17;;
33206;SDS011;19565;46.602;11.534;2022-09-03T08:11:40;64.65;;;61.85;;
33206;SDS011;19565;46.602;11.534;2022-09-03T08:14:11;62.38;;;59.67;;
33206;SDS011;19565;46.602;11.534;2022-09-03T08:16:41;69.00;;;65.93;;
33206;SDS011;19565;46.602;11.534;2022-09-03T08:19:11;73.78;;;70.63;;
33206;SDS011;19565;46.602;11.534;2022-09-03T08:21:40;64.13;;;61.33;;
33206;SDS011;19565;46.602;11.534;2022-09-03T08:24:08;68.13;;;65.13;;
33206;SDS011;19565;46.602;11.534;2022-09-03T08:26:37;68.50;;;65.60;;
33206;SDS011;19565;46.602;11.534;2022-09-03T08:29:17;67.45;;;64.55;;
33206;SDS011;19565;46.602;11.534;2022-09-03T08:31:45;68.22;;;65.32;;
33206;SDS011;19565;46.602;11.534;2022-09-03T08:34:13;68.93;;;65.93;;
33206;SDS011;19565;46.602;11.534;2022-09-03T08:36:43;70.43;;;67.32;;
33206;SDS011;19565;46.602;11.534;2022-09-03T08:39:12;73.90;;;70.70;;
33206;SDS011;19565;46.602;11.534;2022-09-03T08:41:56;67.05;;;64.15;;
33206;SDS011;19565;46.602;11.534;2022-09-03T08:45:01;66.97;;;63.40;;
33206;SDS011;19565;46.602;11.534;2022-09-03T08:47:33;62.67;;;59.88;;
33206;SDS011;19565;46.602;11.534;2022-09-03T08:50:07;65.35;;;62.50;;
33206;SDS011;19565;46.602;11.534;2022-09-03T08:52:40;65.55;;;62.67;;
33206;SDS011;19565;46.602;11.534;2022-09-03T08:55:19;65.65;;;62.85;;
33206;SDS011;19565;46.602;11.534;2022-09-03T08:57:50;64.07;;;61.28;;
33206;SDS011;19565;46.602;11.534;2022-09-03T09:00:24;60.53;;;57.92;;
33206;SDS011;19565;46.602;11.534;2022-09-03T09:03:06;61.65;;;58.95;;
33206;SDS011;19565;46.602;11.534;2022-09-03T09:05:50;59.35;;;56.75;;
33206;SDS011;19565;46.602;11.534;2022-09-03T09:08:26;59.47;;;56.88;;
33206;SDS011;19565;46.602;11.534;2022-09-03T09:11:01;58.63;;;56.05;;
33206;SDS011;19565;46.602;11.534;2022-09-03T09:13:38;60.95;;;58.25;;
33206;SDS011;19565;46.602;11.534;2022-09-03T09:16:14;61.45;;;58.75;;
33206;SDS011;19565;46.602;11.534;2022-09-03T09:18:52;60.87;;;58.27;;
33206;SDS011;19565;46.602;11.534;2022-09-03T09:21:30;61.77;;;59.10;;
33206;SDS011;19565;46.602;11.534;2022-09-03T09:24:05;61.63;;;58.83;;
33206;SDS011;19565;46.602;11.534;2022-09-03T09:26:39;60.67;;;57.97;;
33206;SDS011;19565;46.602;11.534;2022-09-03T09:29:08;59.60;;;57.00;;
33206;SDS011;19565;46.602;11.534;2022-09-03T09:31:40;59.10;;;56.60;;
33206;SDS011;19565;46.602;11.534;2022-09-03T09:34:10;60.38;;;57.72;;
33206;SDS011;19565;46.602;11.534;2022-09-03T09:36:42;61.90;;;59.15;;
33206;SDS011;19565;46.602;11.534;2022-09-03T09:39:14;59.03;;;56.33;;
33206;SDS011;19565;46.602;11.534;2022-09-03T09:41:43;61.27;;;58.57;;
33206;SDS011;19565;46.602;11.534;2022-09-03T09:44:24;59.53;;;56.93;;
33206;SDS011;19565;46.602;11.534;2022-09-03T09:47:02;60.42;;;57.67;;
33206;SDS011;19565;46.602;11.534;2022-09-03T09:49:33;58.05;;;55.55;;
33206;SDS011;19565;46.602;11.534;2022-09-03T09:52:08;59.47;;;56.83;;
33206;SDS011;19565;46.602;11.534;2022-09-03T09:54:38;63.17;;;60.38;;
33206;SDS011;19565;46.602;11.534;2022-09-03T09:57:14;61.35;;;58.65;;
33206;SDS011;19565;46.602;11.534;2022-09-03T09:59:44;61.88;;;59.15;;
33206;SDS011;19565;46.602;11.534;2022-09-03T10:02:22;60.97;;;58.38;;
33206;SDS011;19565;46.602;11.534;2022-09-03T10:04:53;61.55;;;58.85;;
33206;SDS011;19565;46.602;11.534;2022-09-03T10:07:26;59.67;;;57.08;;
33206;SDS011;19565;46.602;11.534;2022-09-03T10:09:58;58.10;;;55.60;;
33206;SDS011;19565;46.602;11.534;2022-09-03T10:12:32;60.10;;;57.28;;
33206;SDS011;19565;46.602;11.534;2022-09-03T10:15:14;58.13;;;55.63;;
33206;SDS011;19565;46.602;11.534;2022-09-03T10:17:54;57.37;;;54.87;;
33206;SDS011;19565;46.602;11.534;2022-09-03T10:20:29;57.55;;;55.05;;
33206;SDS011;19565;46.602;11.534;2022-09-03T10:23:06;58.00;;;55.47;;
33206;SDS011;19565;46.602;11.534;2022-09-03T10:25:39;58.88;;;56.38;;
33206;SDS011;19565;46.602;11.534;2022-09-03T10:28:19;59.90;;;57.30;;
33206;SDS011;19565;46.602;11.534;2022-09-03T10:30:55;63.20;;;60.40;;
33206;SDS011;19565;46.602;11.534;2022-09-03T10:33:38;61.03;;;58.33;;
33206;SDS011;19565;46.602;11.534;2022-09-03T10:36:11;60.20;;;57.65;;
33206;SDS011;19565;46.602;11.534;2022-09-03T10:38:45;61.40;;;58.70;;
33206;SDS011;19565;46.602;11.534;2022-09-03T10:41:24;61.83;;;59.13;;
33206;SDS011;19565;46.602;11.534;2022-09-03T10:44:05;61.80;;;59.10;;
33206;SDS011;19565;46.602;11.534;2022-09-03T10:46:48;62.42;;;59.72;;
33206;SDS011;19565;46.602;11.534;2022-09-03T10:49:25;63.03;;;60.23;;
33206;SDS011;19565;46.602;11.534;2022-09-03T10:52:05;63.10;;;60.30;;
33206;SDS011;19565;46.602;11.534;2022-09-03T10:54:44;59.75;;;56.88;;
33206;SDS011;19565;46.602;11.534;2022-09-03T10:57:33;59.57;;;56.97;;
33206;SDS011;19565;46.602;11.534;2022-09-03T11:00:09;58.83;;;56.13;;
33206;SDS011;19565;46.602;11.534;2022-09-03T11:06:01;62.05;;;59.30;;
33206;SDS011;19565;46.602;11.534;2022-09-03T11:08:35;60.55;;;57.90;;
33206;SDS011;19565;46.602;11.534;2022-09-03T11:11:11;60.35;;;57.50;;
33206;SDS011;19565;46.602;11.534;2022-09-03T11:13:43;61.53;;;58.83;;
33206;SDS011;19565;46.602;11.534;2022-09-03T11:16:16;59.38;;;56.78;;
33206;SDS011;19565;46.602;11.534;2022-09-03T11:18:47;64.88;;;62.08;;
33206;SDS011;19565;46.602;11.534;2022-09-03T11:21:20;62.17;;;59.47;;
33206;SDS011;19565;46.602;11.534;2022-09-03T11:23:54;62.73;;;59.93;;
33206;SDS011;19565;46.602;11.534;2022-09-03T11:26:31;62.35;;;59.65;;
33206;SDS011;19565;46.602;11.534;2022-09-03T11:29:03;61.38;;;58.58;;
33206;SDS011;19565;46.602;11.534;2022-09-03T11:31:42;61.58;;;58.97;;
33206;SDS011;19565;46.602;11.534;2022-09-03T11:34:24;62.92;;;60.10;;
33206;SDS011;19565;46.602;11.534;2022-09-03T11:37:06;63.08;;;60.33;;
33206;SDS011;19565;46.602;11.534;2022-09-03T11:39:44;62.13;;;59.42;;
33206;SDS011;19565;46.602;11.534;2022-09-03T11:42:25;65.68;;;62.78;;
33206;SDS011;19565;46.602;11.534;2022-09-03T11:44:59;63.20;;;60.20;;
33206;SDS011;19565;46.602;11.534;2022-09-03T11:47:49;64.43;;;61.63;;
33206;SDS011;19565;46.602;11.534;2022-09-03T11:50:21;62.55;;;59.85;;
33206;SDS011;19565;46.602;11.534;2022-09-03T11:52:52;63.65;;;60.78;;
33206;SDS011;19565;46.602;11.534;2022-09-03T11:55:24;64.75;;;61.95;;
33206;SDS011;19565;46.602;11.534;2022-09-03T11:58:09;64.78;;;61.97;;
33206;SDS011;19565;46.602;11.534;2022-09-03T12:00:39;64.43;;;61.50;;
33206;SDS011;19565;46.602;11.534;2022-09-03T12:03:12;64.28;;;61.38;;
33206;SDS011;19565;46.602;11.534;2022-09-03T12:05:46;64.18;;;61.28;;
33206;SDS011;19565;46.602;11.534;2022-09-03T12:08:31;64.47;;;61.67;;
33206;SDS011;19565;46.602;11.534;2022-09-03T12:11:20;67.03;;;64.13;;
33206;SDS011;19565;46.602;11.534;2022-09-03T12:13:57;66.40;;;63.45;;
33206;SDS011;19565;46.602;11.534;2022-09-03T12:16:50;65.20;;;62.40;;
33206;SDS011;19565;46.602;11.534;2022-09-03T12:19:28;67.32;;;64.32;;
33206;SDS011;19565;46.602;11.534;2022-09-03T12:22:03;62.55;;;59.83;;
33206;SDS011;19565;46.602;11.534;2022-09-03T12:24:33;62.30;;;59.63;;
33206;SDS011;19565;46.602;11.534;2022-09-03T12:27:03;64.00;;;61.20;;
33206;SDS011;19565;46.602;11.534;2022-09-03T12:29:33;63.58;;;60.78;;
33206;SDS011;19565;46.602;11.534;2022-09-03T12:32:04;65.80;;;62.88;;
33206;SDS011;19565;46.602;11.534;2022-09-03T12:34:34;63.70;;;60.90;;
33206;SDS011;19565;46.602;11.534;2022-09-03T12:37:02;61.47;;;58.78;;
33206;SDS011;19565;46.602;11.534;2022-09-03T12:39:49;61.57;;;58.67;;
33206;SDS011;19565;46.602;11.534;2022-09-03T12:42:34;60.43;;;57.83;;
33206;SDS011;19565;46.602;11.534;2022-09-03T12:45:05;59.65;;;56.95;;
33206;SDS011;19565;46.602;11.534;2022-09-03T12:47:37;63.03;;;60.03;;
33206;SDS011;19565;46.602;11.534;2022-09-03T12:50:07;61.15;;;58.25;;
33206;SDS011;19565;46.602;11.534;2022-09-03T12:52:37;62.42;;;59.67;;
33206;SDS011;19565;46.602;11.534;2022-09-03T12:55:14;64.53;;;61.72;;
33206;SDS011;19565;46.602;11.534;2022-09-03T12:57:59;66.50;;;63.60;;
33206;SDS011;19565;46.602;11.534;2022-09-03T13:00:37;66.32;;;63.47;;
33206;SDS011;19565;46.602;11.534;2022-09-03T13:03:09;65.35;;;62.55;;
33206;SDS011;19565;46.602;11.534;2022-09-03T13:05:44;67.30;;;64.30;;
33206;SDS011;19565;46.602;11.534;2022-09-03T13:08:19;67.95;;;65.05;;
33206;SDS011;19565;46.602;11.534;2022-09-03T13:10:52;67.40;;;64.45;;
33206;SDS011;19565;46.602;11.534;2022-09-03T13:13:25;66.82;;;63.92;;
33206;SDS011;19565;46.602;11.534;2022-09-03T13:15:55;67.67;;;64.67;;
33206;SDS011;19565;46.602;11.534;2022-09-03T13:18:32;70.13;;;67.03;;
33206;SDS011;19565;46.602;11.534;2022-09-03T13:21:14;69.07;;;66.07;;
33206;SDS011;19565;46.602;11.534;2022-09-03T13:23:54;68.67;;;65.67;;
33206;SDS011;19565;46.602;11.534;2022-09-03T13:26:40;64.75;;;61.65;;
33206;SDS011;19565;46.602;11.534;2022-09-03T13:29:35;67.55;;;64.35;;
33206;SDS011;19565;46.602;11.534;2022-09-03T13:32:10;68.13;;;65.13;;
33206;SDS011;19565;46.602;11.534;2022-09-03T13:34:50;67.40;;;64.50;;
33206;SDS011;19565;46.602;11.534;2022-09-03T13:37:24;74.72;;;71.53;;
33206;SDS011;19565;46.602;11.534;2022-09-03T13:39:57;72.88;;;69.78;;
33206;SDS011;19565;46.602;11.534;2022-09-03T13:42:32;70.30;;;67.30;;
33206;SDS011;19565;46.602;11.534;2022-09-03T13:45:07;70.68;;;67.57;;
33206;SDS011;19565;46.602;11.534;2022-09-03T13:47:47;72.53;;;69.32;;
33206;SDS011;19565;46.602;11.534;2022-09-03T13:50:41;65.82;;;63.03;;
33206;SDS011;19565;46.602;11.534;2022-09-03T13:53:16;64.25;;;61.45;;
33206;SDS011;19565;46.602;11.534;2022-09-03T13:55:49;64.78;;;61.80;;
33206;SDS011;19565;46.602;11.534;2022-09-03T13:58:23;63.65;;;60.95;;
33206;SDS011;19565;46.602;11.534;2022-09-03T14:01:03;67.80;;;64.90;;
33206;SDS011;19565;46.602;11.534;2022-09-03T14:03:41;71.78;;;68.68;;
33206;SDS011;19565;46.602;11.534;2022-09-03T14:06:17;75.38;;;71.97;;
33206;SDS011;19565;46.602;11.534;2022-09-03T14:08:58;70.43;;;67.40;;
33206;SDS011;19565;46.602;11.534;2022-09-03T14:11:34;71.72;;;68.63;;
33206;SDS011;19565;46.602;11.534;2022-09-03T14:14:18;65.25;;;62.40;;
33206;SDS011;19565;46.602;11.534;2022-09-03T14:16:56;70.57;;;67.53;;
33206;SDS011;19565;46.602;11.534;2022-09-03T14:19:32;69.88;;;66.70;;
33206;SDS011;19565;46.602;11.534;2022-09-03T14:22:06;71.07;;;67.97;;
33206;SDS011;19565;46.602;11.534;2022-09-03T14:24:39;66.27;;;63.47;;
33206;SDS011;19565;46.602;11.534;2022-09-03T14:27:20;64.10;;;61.35;;
33206;SDS011;19565;46.602;11.534;2022-09-03T14:29:53;66.95;;;64.10;;
33206;SDS011;19565;46.602;11.534;2022-09-03T14:32:27;63.60;;;60.85;;
33206;SDS011;19565;46.602;11.534;2022-09-03T14:35:20;67.18;;;64.07;;
33206;SDS011;19565;46.602;11.534;2022-09-03T14:38:16;63.80;;;61.00;;
33206;SDS011;19565;46.602;11.534;2022-09-03T14:41:04;63.42;;;60.63;;
33206;SDS011;19565;46.602;11.534;2022-09-03T14:46:54;63.60;;;60.85;;
33206;SDS011;19565;46.602;11.534;2022-09-03T14:52:46;62.40;;;59.70;;
33206;SDS011;19565;46.602;11.534;2022-09-03T14:55:24;61.03;;;58.22;;
33206;SDS011;19565;46.602;11.534;2022-09-03T14:58:03;58.15;;;55.55;;
33206;SDS011;19565;46.602;11.534;2022-09-03T15:00:48;58.55;;;56.05;;
33206;SDS011;19565;46.602;11.534;2022-09-03T15:03:29;58.65;;;56.13;;
33206;SDS011;19565;46.602;11.534;2022-09-03T15:06:27;58.42;;;55.92;;